Time;durP1;ratioP1;P1;durP2;ratioP2;P2;SDS_P1;SDS_P2;PMS_P1;PMS_P2;Temp;Humidity;BMP_temperature;BMP_pressure;BME280_temperature;BME280_humidity;BME280_pressure;Samples;Min_cycle;Max_cycle;Signal;HPM_P1;HPM_P2
2021/03/25 00:00:40;;;;;;;85.93;43.50;;;6.90;79.90;;;;;;5070569;28;20047;-66
2021/03/25 00:03:09;;;;;;;82.60;44.47;;;6.80;79.80;;;;;;5070748;28;20128;-67
2021/03/25 00:05:35;;;;;;;86.10;42.97;;;6.80;80.00;;;;;;5071294;28;20028;-67
2021/03/25 00:08:03;;;;;;;82.87;43.30;;;6.80;80.20;;;;;;5069810;28;20437;-67
2021/03/25 00:10:32;;;;;;;84.60;43.57;;;6.70;80.20;;;;;;5052232;28;20032;-66
2021/03/25 00:12:58;;;;;;;83.20;42.60;;;6.70;80.30;;;;;;5069387;28;20035;-66
2021/03/25 00:15:24;;;;;;;88.67;46.00;;;6.60;80.30;;;;;;5070330;28;20078;-67
2021/03/25 00:17:50;;;;;;;84.47;41.53;;;6.50;80.10;;;;;;5069704;28;20025;-66
2021/03/25 00:20:16;;;;;;;84.27;41.57;;;6.50;80.30;;;;;;5070653;28;20037;-66
2021/03/25 00:22:43;;;;;;;92.67;44.37;;;6.40;80.30;;;;;;5086262;28;20039;-66
2021/03/25 00:25:12;;;;;;;100.13;46.07;;;6.30;80.30;;;;;;5089657;28;20066;-66
2021/03/25 00:27:37;;;;;;;89.27;44.13;;;6.20;80.40;;;;;;5090642;28;20491;-66
2021/03/25 00:30:05;;;;;;;90.67;44.17;;;6.10;80.50;;;;;;5089813;28;20107;-66
2021/03/25 00:32:32;;;;;;;94.37;44.20;;;6.10;80.70;;;;;;5091073;28;20028;-70
2021/03/25 00:34:58;;;;;;;89.20;45.23;;;6.00;80.80;;;;;;5091275;28;20114;-66
2021/03/25 00:37:23;;;;;;;98.63;47.10;;;6.00;81.00;;;;;;5089269;28;20123;-65
2021/03/25 00:39:49;;;;;;;94.70;46.00;;;5.90;81.00;;;;;;5091090;28;20170;-66
2021/03/25 00:42:14;;;;;;;92.77;43.50;;;5.90;81.10;;;;;;5089685;28;20044;-66
2021/03/25 00:44:40;;;;;;;86.67;42.87;;;5.80;81.10;;;;;;5090878;28;20036;-66
2021/03/25 00:47:06;;;;;;;92.33;45.30;;;5.70;81.20;;;;;;5090299;28;20522;-65
2021/03/25 00:49:34;;;;;;;94.00;45.00;;;5.70;81.40;;;;;;5091026;28;20498;-65
2021/03/25 00:52:00;;;;;;;98.30;46.87;;;5.60;81.50;;;;;;5089417;28;20040;-66
2021/03/25 00:54:27;;;;;;;108.10;47.57;;;5.60;81.80;;;;;;5089242;28;20480;-65
2021/03/25 00:56:53;;;;;;;99.00;45.17;;;5.50;82.00;;;;;;5089406;28;20044;-66
2021/03/25 00:59:18;;;;;;;89.10;43.20;;;5.50;82.30;;;;;;5090022;28;20102;-66
2021/03/25 01:01:44;;;;;;;97.43;44.60;;;5.50;82.40;;;;;;5089667;28;20520;-66
2021/03/25 01:04:10;;;;;;;94.37;44.60;;;5.50;82.40;;;;;;5089015;28;20054;-66
2021/03/25 01:06:35;;;;;;;89.80;43.23;;;5.40;82.40;;;;;;5090318;28;20036;-66
2021/03/25 01:09:13;;;;;;;91.20;43.13;;;5.40;82.50;;;;;;5089362;28;20447;-65
2021/03/25 01:11:39;;;;;;;95.33;45.17;;;5.30;82.50;;;;;;5088056;28;20072;-65
2021/03/25 01:14:09;;;;;;;93.70;44.83;;;5.30;82.70;;;;;;5072191;28;20463;-65
2021/03/25 01:16:41;;;;;;;94.50;45.05;;;5.30;82.70;;;;;;5089565;28;20133;-66
2021/03/25 01:19:22;;;;;;;101.23;45.67;;;5.20;82.80;;;;;;5090725;28;20044;-66
2021/03/25 01:21:48;;;;;;;106.75;46.80;;;5.20;82.90;;;;;;5088004;28;20065;-66
2021/03/25 01:24:13;;;;;;;95.80;45.07;;;5.10;83.40;;;;;;5090167;28;20055;-66
2021/03/25 01:26:40;;;;;;;90.13;43.37;;;5.10;83.10;;;;;;5090012;28;20043;-67
2021/03/25 01:29:10;;;;;;;92.53;45.25;;;5.10;83.20;;;;;;5089285;28;20488;-66
2021/03/25 01:31:36;;;;;;;98.93;44.53;;;5.00;83.20;;;;;;5088378;28;20108;-67
2021/03/25 01:34:06;;;;;;;96.17;44.83;;;5.00;83.40;;;;;;5086951;28;20097;-66
2021/03/25 01:36:32;;;;;;;93.27;42.83;;;5.00;83.60;;;;;;5088798;28;20056;-66
2021/03/25 01:38:58;;;;;;;98.53;44.33;;;4.90;83.70;;;;;;5071658;28;20119;-66
2021/03/25 01:41:31;;;;;;;98.37;44.50;;;4.90;83.80;;;;;;5088172;28;20090;-66
2021/03/25 01:44:00;;;;;;;95.43;44.10;;;4.90;83.90;;;;;;5092200;28;20109;-66
2021/03/25 01:46:38;;;;;;;93.33;42.20;;;4.90;84.00;;;;;;5090234;28;20032;-65
2021/03/25 01:49:10;;;;;;;101.53;45.40;;;4.90;84.20;;;;;;5094110;28;20484;-68
2021/03/25 01:51:57;;;;;;;96.63;44.47;;;4.90;84.60;;;;;;5094089;28;20557;-67
2021/03/25 01:54:55;;;;;;;87.40;41.27;;;4.90;85.10;;;;;;5092119;28;20035;-67
2021/03/25 01:57:28;;;;;;;90.30;42.13;;;5.00;85.70;;;;;;5074469;28;20059;-67
2021/03/25 02:00:12;;;;;;;84.47;39.93;;;5.10;86.10;;;;;;5072270;28;20114;-66
2021/03/25 02:03:03;;;;;;;88.30;41.73;;;5.30;86.50;;;;;;5072952;28;20040;-66
2021/03/25 02:05:56;;;;;;;77.10;38.27;;;5.40;86.50;;;;;;5071705;28;20037;-66
2021/03/25 02:08:53;;;;;;;82.05;38.78;;;5.60;86.40;;;;;;5071841;28;20043;-65
2021/03/25 02:12:04;;;;;;;82.97;40.83;;;5.70;86.50;;;;;;5070992;28;20434;-66
2021/03/25 02:15:03;;;;;;;73.67;37.97;;;5.80;86.20;;;;;;5071722;28;20028;-65
2021/03/25 02:17:34;;;;;;;75.87;37.57;;;5.90;86.20;;;;;;5020320;28;20566;-66
2021/03/25 02:20:38;;;;;;;70.03;36.60;;;5.90;86.10;;;;;;5072223;28;20044;-66
2021/03/25 02:23:30;;;;;;;77.30;39.20;;;6.00;86.20;;;;;;5071531;28;20028;-67
2021/03/25 02:26:14;;;;;;;73.23;37.40;;;6.00;86.20;;;;;;5071594;28;20086;-65
2021/03/25 02:28:46;;;;;;;67.40;36.33;;;6.10;86.30;;;;;;5071411;28;20098;-66
2021/03/25 02:31:19;;;;;;;72.77;38.23;;;6.10;86.30;;;;;;5072273;28;20779;-66
2021/03/25 02:33:55;;;;;;;74.37;38.60;;;6.20;86.30;;;;;;5071222;28;20051;-65
2021/03/25 02:37:04;;;;;;;73.40;40.07;;;6.20;86.30;;;;;;5071655;28;20041;-66
2021/03/25 02:39:56;;;;;;;68.20;37.53;;;6.30;86.40;;;;;;5012954;28;22017;-65
2021/03/25 02:42:46;;;;;;;68.80;36.63;;;6.30;86.30;;;;;;5070633;28;20035;-66
2021/03/25 02:45:19;;;;;;;71.03;37.40;;;6.40;86.30;;;;;;5071543;28;20048;-67
2021/03/25 02:47:49;;;;;;;71.70;37.33;;;6.40;86.20;;;;;;5071088;28;20029;-66
2021/03/25 02:50:28;;;;;;;70.65;37.33;;;6.40;86.20;;;;;;5072365;28;20501;-66
2021/03/25 02:53:01;;;;;;;67.23;38.13;;;6.50;86.20;;;;;;5055186;28;20039;-66
2021/03/25 02:55:28;;;;;;;68.87;37.47;;;6.50;86.30;;;;;;5070457;28;20036;-65
2021/03/25 02:58:10;;;;;;;69.43;36.37;;;6.60;86.40;;;;;;5070806;28;20036;-66
2021/03/25 03:00:44;;;;;;;72.17;36.10;;;6.60;86.40;;;;;;5071771;28;20033;-67
2021/03/25 03:03:20;;;;;;;71.23;37.50;;;6.70;86.40;;;;;;5070972;28;20059;-66
2021/03/25 03:06:18;;;;;;;64.15;33.65;;;6.70;86.30;;;;;;5048330;28;20037;-65
2021/03/25 03:08:50;;;;;;;69.53;36.23;;;6.80;86.40;;;;;;5071059;28;20492;-66
2021/03/25 03:11:28;;;;;;;66.57;35.93;;;6.80;86.30;;;;;;5070150;28;20064;-67
2021/03/25 03:14:00;;;;;;;68.00;36.67;;;6.80;86.20;;;;;;5072433;28;20466;-67
2021/03/25 03:16:33;;;;;;;70.47;38.40;;;6.90;86.20;;;;;;5070826;28;20040;-66
2021/03/25 03:19:06;;;;;;;68.00;35.90;;;7.00;86.20;;;;;;5072443;28;20079;-67
2021/03/25 03:21:55;;;;;;;69.80;36.83;;;6.90;86.20;;;;;;5070034;28;20066;-66
2021/03/25 03:24:31;;;;;;;68.73;36.30;;;7.00;86.30;;;;;;5055016;28;20040;-67
2021/03/25 03:27:21;;;;;;;72.30;37.30;;;7.10;86.40;;;;;;5070326;28;20486;-66
2021/03/25 03:29:50;;;;;;;68.10;35.53;;;7.10;86.30;;;;;;5070196;28;20039;-66
2021/03/25 03:32:25;;;;;;;64.57;36.20;;;7.10;86.20;;;;;;5070250;28;20036;-67
2021/03/25 03:35:01;;;;;;;67.03;36.80;;;7.20;86.30;;;;;;5071432;28;20040;-66
2021/03/25 03:37:34;;;;;;;66.67;35.03;;;7.20;86.00;;;;;;5071729;28;20043;-66
2021/03/25 03:40:21;;;;;;;63.27;33.70;;;7.20;86.00;;;;;;5070013;28;20560;-67
2021/03/25 03:42:47;;;;;;;61.23;33.40;;;7.20;86.00;;;;;;5071480;28;20036;-67
2021/03/25 03:45:17;;;;;;;60.87;34.53;;;7.20;86.00;;;;;;5069255;28;20437;-67
2021/03/25 03:47:54;;;;;;;61.37;33.53;;;7.20;85.80;;;;;;5054924;28;20056;-66
2021/03/25 03:50:30;;;;;;;62.93;34.90;;;7.20;85.70;;;;;;5069488;28;20511;-66
2021/03/25 03:52:56;;;;;;;64.87;34.67;;;7.20;85.60;;;;;;5070020;28;20082;-65
2021/03/25 03:55:23;;;;;;;61.73;33.73;;;7.10;85.80;;;;;;5069109;28;20040;-66
2021/03/25 03:58:15;;;;;;;64.30;34.67;;;7.10;86.00;;;;;;5070076;28;20032;-66
2021/03/25 04:01:06;;;;;;;61.10;33.17;;;7.10;86.10;;;;;;5068682;28;20440;-67
2021/03/25 04:03:38;;;;;;;;;;;7.20;86.20;;;;;;5070025;28;20036;-67
2021/03/25 04:06:09;;;;;;;61.90;33.27;;;7.20;86.20;;;;;;5070827;28;19919;-66
2021/03/25 04:09:12;;;;;;;61.70;34.53;;;7.30;86.20;;;;;;5069460;28;20465;-66
2021/03/25 04:12:00;;;;;;;57.63;32.50;;;7.30;86.20;;;;;;5068639;28;20416;-65
2021/03/25 04:14:45;;;;;;;60.30;33.23;;;7.40;86.30;;;;;;5053424;28;20500;-67
2021/03/25 04:17:44;;;;;;;63.87;35.40;;;7.30;86.10;;;;;;5069812;28;20078;-66
2021/03/25 04:20:29;;;;;;;64.93;35.00;;;7.40;86.20;;;;;;5072532;28;20044;-66
2021/03/25 04:23:11;;;;;;;66.67;33.23;;;7.40;86.10;;;;;;5070143;28;20400;-67
2021/03/25 04:25:41;;;;;;;59.13;33.17;;;7.40;86.00;;;;;;5070354;28;20398;-66
2021/03/25 04:28:16;;;;;;;62.58;34.20;;;7.40;86.00;;;;;;5069710;28;20032;-66
2021/03/25 04:30:46;;;;;;;64.20;33.60;;;7.40;86.20;;;;;;5069664;28;20139;-66
2021/03/25 04:33:13;;;;;;;62.60;34.28;;;7.50;86.20;;;;;;5069357;28;20040;-67
2021/03/25 04:35:44;;;;;;;67.93;34.97;;;7.50;86.20;;;;;;5069738;28;20037;-66
2021/03/25 04:38:24;;;;;;;70.20;36.05;;;7.50;85.90;;;;;;5069520;28;20036;-66
2021/03/25 04:40:53;;;;;;;71.05;36.28;;;7.50;86.10;;;;;;5069721;28;20508;-67
2021/03/25 04:43:21;;;;;;;61.47;34.17;;;7.50;86.20;;;;;;5070890;28;20127;-67
2021/03/25 04:45:52;;;;;;;65.47;34.20;;;7.50;86.80;;;;;;5069987;28;20080;-65
2021/03/25 04:48:22;;;;;;;60.77;34.20;;;7.50;86.30;;;;;;5070943;28;20032;-66
2021/03/25 04:51:04;;;;;;;61.00;33.87;;;7.60;86.30;;;;;;5069344;28;20044;-66
2021/03/25 04:53:34;;;;;;;64.43;35.80;;;7.60;86.30;;;;;;5069608;28;20044;-67
2021/03/25 04:56:03;;;;;;;66.88;36.63;;;7.60;86.30;;;;;;5069946;28;20496;-66
2021/03/25 04:58:33;;;;;;;62.40;33.33;;;7.60;86.20;;;;;;5070834;28;20035;-74
2021/03/25 05:01:08;;;;;;;63.90;35.67;;;7.70;86.30;;;;;;5068317;28;20051;-72
2021/03/25 05:03:34;;;;;;;70.83;37.93;;;7.70;86.30;;;;;;5070681;28;20439;-73
2021/03/25 05:06:00;;;;;;;67.47;37.33;;;7.70;86.20;;;;;;5068492;28;20051;-74
2021/03/25 05:08:30;;;;;;;69.67;37.27;;;7.70;86.30;;;;;;5070183;28;20032;-73
2021/03/25 05:11:16;;;;;;;70.80;35.53;;;7.70;86.30;;;;;;5069761;28;20032;-73
2021/03/25 05:13:44;;;;;;;65.67;35.70;;;7.80;86.30;;;;;;5070170;28;20106;-74
2021/03/25 05:16:35;;;;;;;71.43;37.90;;;7.80;86.30;;;;;;5069776;28;20041;-74
2021/03/25 05:19:16;;;;;;;68.82;36.38;;;7.80;86.40;;;;;;5072700;28;20191;-73
2021/03/25 05:21:54;;;;;;;62.37;33.07;;;7.80;86.50;;;;;;5073687;28;20047;-74
2021/03/25 05:24:32;;;;;;;65.30;33.60;;;7.80;86.40;;;;;;5073639;28;20036;-73
2021/03/25 05:27:03;;;;;;;65.77;35.13;;;7.90;86.50;;;;;;5073109;28;20036;-74
2021/03/25 05:29:29;;;;;;;66.72;33.20;;;7.90;86.50;;;;;;5075162;28;20112;-74
2021/03/25 05:31:57;;;;;;;66.30;35.67;;;7.90;86.40;;;;;;5073952;28;20492;-74
2021/03/25 05:34:24;;;;;;;64.47;35.37;;;8.00;86.40;;;;;;5074172;28;20048;-74
2021/03/25 05:36:56;;;;;;;61.50;33.53;;;8.00;86.40;;;;;;5073978;28;20488;-74
2021/03/25 05:39:23;;;;;;;65.03;34.03;;;8.00;86.30;;;;;;5073527;28;20072;-74
2021/03/25 05:42:09;;;;;;;69.80;34.97;;;8.00;86.30;;;;;;5073159;28;20140;-74
2021/03/25 05:45:01;;;;;;;70.33;34.60;;;8.10;86.30;;;;;;5072312;28;20045;-74
2021/03/25 05:47:54;;;;;;;69.00;34.47;;;8.10;86.20;;;;;;5073354;28;20467;-74
2021/03/25 05:50:51;;;;;;;63.30;31.80;;;8.10;85.90;;;;;;5073447;28;20397;-75
2021/03/25 05:53:25;;;;;;;66.77;33.43;;;8.10;86.30;;;;;;5071568;28;20032;-74
2021/03/25 05:56:21;;;;;;;68.70;33.60;;;8.10;86.40;;;;;;5073035;28;20047;-75
2021/03/25 05:59:17;;;;;;;69.30;34.83;;;8.10;86.50;;;;;;5073016;28;20507;-74
2021/03/25 06:01:49;;;;;;;72.00;34.97;;;8.20;86.60;;;;;;5071563;28;20466;-74
2021/03/25 06:04:19;;;;;;;66.90;33.90;;;8.20;86.60;;;;;;5073676;28;20056;-73
2021/03/25 06:07:31;;;;;;;69.90;34.13;;;8.20;86.60;;;;;;5072720;28;20075;-73
2021/03/25 06:10:27;;;;;;;67.03;32.63;;;8.20;86.30;;;;;;5056110;28;20029;-74
2021/03/25 06:13:30;;;;;;;64.07;31.60;;;8.20;86.30;;;;;;5061451;28;20033;-74
2021/03/25 06:16:13;;;;;;;66.07;31.07;;;8.20;86.40;;;;;;5092778;28;20113;-72
2021/03/25 06:19:01;;;;;;;58.77;30.03;;;8.30;86.50;;;;;;5093378;28;20082;-75
2021/03/25 06:21:45;;;;;;;57.27;29.23;;;8.30;86.70;;;;;;5092690;28;20054;-73
2021/03/25 06:24:30;;;;;;;55.10;29.63;;;8.30;86.30;;;;;;5092276;28;20036;-72
2021/03/25 06:27:30;;;;;;;59.63;29.23;;;8.30;86.30;;;;;;5092828;28;20039;-73
2021/03/25 06:30:03;;;;;;;54.63;26.13;;;8.30;86.60;;;;;;5080734;28;20034;-74
2021/03/25 06:32:56;;;;;;;50.70;26.57;;;8.40;86.50;;;;;;5081723;28;20060;-74
2021/03/25 06:35:57;;;;;;;49.27;25.43;;;8.30;85.90;;;;;;5072716;28;20037;-72
2021/03/25 06:38:52;;;;;;;;;;;8.30;86.20;;;;;;5062124;28;20036;-74
2021/03/25 06:41:24;;;;;;;51.57;26.00;;;8.30;86.40;;;;;;5067067;28;20548;-74
2021/03/25 06:43:52;;;;;;;48.20;25.13;;;8.30;86.30;;;;;;5072127;28;20059;-73
2021/03/25 06:46:22;;;;;;;48.73;26.30;;;8.40;86.30;;;;;;5072576;28;20067;-74
2021/03/25 06:48:52;;;;;;;48.77;24.70;;;8.40;86.50;;;;;;5097447;28;20047;-74
2021/03/25 06:51:24;;;;;;;49.95;25.65;;;8.40;86.30;;;;;;5093678;28;20157;-74
2021/03/25 06:54:15;;;;;;;50.60;27.00;;;8.50;86.30;;;;;;5093166;28;20396;-73
2021/03/25 06:56:46;;;;;;;46.83;25.23;;;8.50;86.30;;;;;;5082619;28;20085;-73
2021/03/25 06:59:30;;;;;;;49.85;26.05;;;8.60;86.20;;;;;;5092624;28;20032;-72
2021/03/25 07:02:08;;;;;;;48.00;26.17;;;8.60;85.60;;;;;;5090656;28;20032;-72
2021/03/25 07:04:38;;;;;;;52.40;27.27;;;8.60;85.40;;;;;;5091165;28;20043;-72
2021/03/25 07:07:05;;;;;;;;;;;8.50;85.70;;;;;;5080341;28;20040;-73
2021/03/25 07:09:36;;;;;;;50.20;24.37;;;8.60;85.90;;;;;;5080401;28;19908;-73
2021/03/25 07:12:04;;;;;;;54.07;27.37;;;8.60;86.00;;;;;;5079976;28;20115;-75
2021/03/25 07:14:41;;;;;;;48.93;26.60;;;8.70;86.00;;;;;;5081335;28;20048;-74
2021/03/25 07:17:10;;;;;;;51.17;26.80;;;8.80;86.20;;;;;;5081115;28;20060;-73
2021/03/25 07:19:38;;;;;;;49.07;26.83;;;8.80;85.70;;;;;;5075345;28;20503;-74
2021/03/25 07:22:26;;;;;;;47.27;26.53;;;8.90;85.70;;;;;;5078708;28;20036;-75
2021/03/25 07:24:54;;;;;;;49.90;25.70;;;8.90;85.30;;;;;;5082685;28;20453;-74
2021/03/25 07:27:33;;;;;;;48.47;27.10;;;9.00;85.10;;;;;;5080828;28;20045;-73
2021/03/25 07:30:06;;;;;;;56.13;29.43;;;9.10;85.10;;;;;;5079180;28;20089;-73
2021/03/25 07:32:50;;;;;;;52.67;29.33;;;9.20;85.20;;;;;;5080858;28;20035;-74
2021/03/25 07:35:30;;;;;;;48.77;26.20;;;9.30;84.80;;;;;;5079904;28;20035;-74
2021/03/25 07:37:58;;;;;;;50.87;28.57;;;9.30;84.40;;;;;;5080335;28;20028;-74
2021/03/25 07:40:36;;;;;;;48.30;25.83;;;9.30;84.10;;;;;;5078701;28;20308;-74
2021/03/25 07:43:22;;;;;;;48.22;26.52;;;9.40;84.30;;;;;;5080808;28;20472;-74
2021/03/25 07:46:04;;;;;;;46.05;25.23;;;9.40;84.30;;;;;;5081705;28;20033;-75
2021/03/25 07:48:30;;;;;;;48.45;26.17;;;9.50;84.40;;;;;;5082030;28;20033;-73
2021/03/25 07:51:11;;;;;;;42.85;23.73;;;9.60;83.80;;;;;;5078830;28;20036;-74
2021/03/25 07:53:38;;;;;;;;;;;9.70;83.60;;;;;;5087838;28;20040;-64
2021/03/25 07:56:09;;;;;;;47.15;24.73;;;9.80;83.60;;;;;;5080861;28;19965;-65
2021/03/25 07:58:46;;;;;;;46.47;24.75;;;10.00;83.40;;;;;;5081059;28;20032;-63
2021/03/25 08:01:23;;;;;;;50.10;26.55;;;10.10;83.00;;;;;;5083700;28;20051;-63
2021/03/25 08:03:56;;;;;;;50.35;25.80;;;10.20;82.60;;;;;;5090628;28;20028;-64
2021/03/25 08:06:39;;;;;;;50.47;27.57;;;10.20;82.00;;;;;;5071407;28;20040;-65
2021/03/25 08:09:09;;;;;;;47.10;26.92;;;10.30;81.90;;;;;;5070592;28;20125;-68
2021/03/25 08:12:00;;;;;;;52.35;29.67;;;10.30;81.20;;;;;;5079296;28;20032;-67
2021/03/25 08:14:34;;;;;;;50.08;28.13;;;10.30;81.00;;;;;;5090541;28;20492;-66
2021/03/25 08:17:30;;;;;;;50.95;28.02;;;10.30;80.30;;;;;;5089670;28;20036;-67
2021/03/25 08:20:28;;;;;;;57.90;30.45;;;10.40;81.40;;;;;;5089324;28;20043;-68
2021/03/25 08:23:25;;;;;;;57.95;31.17;;;10.50;81.30;;;;;;5061756;28;20127;-68
2021/03/25 08:26:02;;;;;;;56.88;30.45;;;10.80;81.20;;;;;;5089283;28;20039;-67
2021/03/25 08:28:28;;;;;;;59.33;31.48;;;11.20;81.50;;;;;;5090298;28;20036;-67
2021/03/25 08:31:19;;;;;;;53.53;31.27;;;11.60;80.50;;;;;;5089033;28;20039;-68
2021/03/25 08:34:11;;;;;;;50.85;30.15;;;12.50;80.70;;;;;;5090628;28;20047;-68
2021/03/25 08:37:02;;;;;;;54.33;30.15;;;13.10;78.60;;;;;;5081614;28;20032;-68
2021/03/25 08:39:53;;;;;;;48.92;27.77;;;13.40;77.20;;;;;;5090928;28;20043;-65
2021/03/25 08:42:59;;;;;;;47.30;28.63;;;13.80;76.40;;;;;;5089578;28;20040;-63
2021/03/25 08:45:34;;;;;;;47.83;28.42;;;14.30;75.60;;;;;;5008588;28;20041;-64
2021/03/25 08:48:26;;;;;;;47.35;28.52;;;14.50;73.70;;;;;;5008626;28;20033;-64
2021/03/25 08:51:16;;;;;;;47.60;28.42;;;14.60;72.70;;;;;;5060784;28;20036;-64
2021/03/25 08:53:46;;;;;;;49.10;28.88;;;14.80;72.20;;;;;;5091027;28;20111;-65
2021/03/25 08:56:18;;;;;;;47.65;27.30;;;14.80;70.40;;;;;;5091359;28;20114;-63
2021/03/25 08:58:44;;;;;;;50.58;28.30;;;14.90;70.00;;;;;;5090544;28;20067;-63
2021/03/25 09:01:15;;;;;;;45.83;27.27;;;15.10;70.70;;;;;;5091249;28;20047;-65
2021/03/25 09:03:49;;;;;;;48.03;26.95;;;15.00;67.40;;;;;;5091765;28;20307;-63
2021/03/25 09:06:22;;;;;;;42.45;27.00;;;14.70;66.60;;;;;;5083830;28;20039;-64
2021/03/25 09:08:54;;;;;;;45.70;27.27;;;14.50;67.50;;;;;;5089203;28;20028;-64
2021/03/25 09:11:20;;;;;;;44.35;27.23;;;15.00;68.80;;;;;;5089241;28;20040;-64
2021/03/25 09:13:55;;;;;;;40.03;27.02;;;16.50;70.30;;;;;;5089857;28;20614;-64
2021/03/25 09:16:27;;;;;;;40.83;26.73;;;18.00;67.80;;;;;;5089829;28;20077;-64
2021/03/25 09:18:54;;;;;;;38.67;27.08;;;19.70;65.10;;;;;;5089960;28;20028;-65
2021/03/25 09:21:27;;;;;;;37.60;26.00;;;21.40;62.60;;;;;;5088759;28;20077;-64
2021/03/25 09:24:02;;;;;;;36.92;26.45;;;22.80;58.30;;;;;;5090006;28;20036;-63
2021/03/25 09:26:28;;;;;;;35.20;25.90;;;23.90;55.60;;;;;;5088357;28;20036;-65
2021/03/25 09:29:01;;;;;;;33.53;24.65;;;25.40;53.80;;;;;;5090323;28;20028;-65
2021/03/25 09:31:35;;;;;;;30.10;23.25;;;27.00;51.60;;;;;;5088479;28;20028;-63
2021/03/25 09:34:10;;;;;;;29.85;22.58;;;28.60;47.60;;;;;;5088473;28;20056;-64
2021/03/25 09:36:36;;;;;;;26.55;21.00;;;29.50;44.20;;;;;;5089619;28;20046;-64
2021/03/25 09:39:03;;;;;;;26.40;21.52;;;29.50;41.40;;;;;;5089972;28;20028;-65
2021/03/25 09:41:29;;;;;;;25.77;20.13;;;29.30;40.20;;;;;;5089137;28;20029;-64
2021/03/25 09:44:10;;;;;;;27.52;19.92;;;29.80;39.60;;;;;;5088093;28;20032;-65
2021/03/25 09:46:42;;;;;;;28.45;20.10;;;30.40;38.50;;;;;;5090032;28;20062;-65
2021/03/25 09:49:14;;;;;;;24.25;17.77;;;31.20;36.40;;;;;;5089550;28;20032;-64
2021/03/25 09:51:41;;;;;;;23.38;18.50;;;31.30;35.30;;;;;;5070954;28;20040;-64
2021/03/25 09:54:24;;;;;;;26.30;20.05;;;32.00;35.20;;;;;;5089241;28;20059;-64
2021/03/25 09:57:15;;;;;;;22.95;18.35;;;32.50;33.00;;;;;;5089934;28;20527;-65
2021/03/25 09:59:57;;;;;;;23.23;17.90;;;32.20;32.90;;;;;;5089180;28;20511;-65
2021/03/25 10:02:38;;;;;;;21.67;16.83;;;32.40;32.00;;;;;;5089213;28;20051;-65
2021/03/25 10:05:33;;;;;;;23.15;18.38;;;33.10;31.60;;;;;;5092861;28;20032;-66
2021/03/25 10:08:03;;;;;;;23.58;16.13;;;33.90;30.10;;;;;;5093452;28;20093;-66
2021/03/25 10:10:53;;;;;;;24.10;18.05;;;33.80;29.50;;;;;;5093688;28;20432;-64
2021/03/25 10:13:35;;;;;;;23.65;17.98;;;33.50;29.20;;;;;;5092105;28;20056;-65
2021/03/25 10:16:04;;;;;;;19.33;15.75;;;33.50;29.10;;;;;;5092699;28;20086;-64
2021/03/25 10:18:30;;;;;;;20.73;16.42;;;33.60;28.40;;;;;;5093523;28;20107;-64
2021/03/25 10:21:07;;;;;;;21.73;15.82;;;33.10;28.50;;;;;;5092686;28;20143;-66
2021/03/25 10:23:51;;;;;;;20.55;15.23;;;33.20;28.40;;;;;;5092927;28;20028;-66
2021/03/25 10:26:47;;;;;;;19.35;14.65;;;32.80;28.30;;;;;;5092526;28;20039;-66
2021/03/25 10:29:26;;;;;;;20.52;15.00;;;33.10;28.10;;;;;;5093080;28;20047;-65
2021/03/25 10:31:55;;;;;;;20.45;14.75;;;34.20;27.50;;;;;;5091677;28;20088;-65
2021/03/25 10:34:42;;;;;;;18.65;14.02;;;34.20;27.20;;;;;;5091544;28;20065;-63
2021/03/25 10:37:29;;;;;;;17.55;14.10;;;33.60;27.00;;;;;;5092716;28;20066;-64
2021/03/25 10:40:19;;;;;;;20.33;13.30;;;33.40;27.20;;;;;;5090590;28;20038;-64
2021/03/25 10:43:01;;;;;;;20.08;14.65;;;33.20;27.30;;;;;;5091016;28;20036;-65
2021/03/25 10:45:45;;;;;;;16.45;13.18;;;32.90;27.40;;;;;;5092389;28;20062;-67
2021/03/25 10:48:33;;;;;;;16.73;13.13;;;32.60;27.00;;;;;;5092144;28;20032;-67
2021/03/25 10:51:06;;;;;;;16.40;12.27;;;32.10;26.90;;;;;;5091932;28;20040;-68
2021/03/25 10:53:39;;;;;;;19.55;13.20;;;31.80;27.20;;;;;;5092141;28;20036;-69
2021/03/25 10:56:12;;;;;;;18.55;12.32;;;31.60;26.70;;;;;;5091782;28;20036;-69
2021/03/25 10:58:41;;;;;;;14.30;10.80;;;31.00;26.80;;;;;;5092236;28;20024;-68
2021/03/25 11:01:17;;;;;;;16.50;10.88;;;30.90;27.60;;;;;;5091483;28;20024;-69
2021/03/25 11:03:43;;;;;;;15.45;10.52;;;31.10;27.00;;;;;;5091718;28;20032;-69
2021/03/25 11:06:29;;;;;;;13.98;9.10;;;31.10;26.40;;;;;;5090661;28;20396;-69
2021/03/25 11:09:16;;;;;;;16.20;9.82;;;30.40;26.40;;;;;;5092124;28;20085;-68
2021/03/25 11:11:43;;;;;;;13.70;10.18;;;30.20;26.50;;;;;;5090691;28;20082;-68
2021/03/25 11:14:43;;;;;;;14.35;9.75;;;30.20;26.50;;;;;;5091971;28;20036;-68
2021/03/25 11:17:16;;;;;;;15.50;9.85;;;30.20;26.90;;;;;;5091988;28;20073;-68
2021/03/25 11:19:42;;;;;;;14.95;10.52;;;30.10;26.40;;;;;;5092374;28;20044;-67
2021/03/25 11:22:11;;;;;;;13.88;10.57;;;29.20;26.10;;;;;;5090663;28;20044;-67
2021/03/25 11:24:38;;;;;;;15.73;9.68;;;28.00;26.00;;;;;;5090684;28;20028;-68
2021/03/25 11:27:11;;;;;;;16.92;10.50;;;26.20;26.60;;;;;;5091481;28;20488;-67
2021/03/25 11:29:39;;;;;;;15.05;9.48;;;24.90;27.70;;;;;;5091688;28;20395;-68
2021/03/25 11:32:25;;;;;;;12.90;8.32;;;24.40;29.00;;;;;;5090798;28;20036;-68
2021/03/25 11:34:54;;;;;;;15.23;9.95;;;24.30;29.30;;;;;;5091630;28;20039;-66
2021/03/25 11:37:30;;;;;;;14.02;9.30;;;23.80;28.90;;;;;;5092119;28;20044;-68
2021/03/25 11:40:12;;;;;;;11.90;8.45;;;22.60;29.60;;;;;;5089772;28;20403;-67
2021/03/25 11:42:39;;;;;;;13.93;8.77;;;21.80;30.70;;;;;;5091283;28;20040;-68
2021/03/25 11:45:06;;;;;;;13.80;8.68;;;21.30;31.60;;;;;;5091005;28;20504;-67
2021/03/25 11:47:38;;;;;;;13.60;9.10;;;20.80;31.70;;;;;;5091764;28;20039;-68
2021/03/25 11:50:27;;;;;;;17.00;10.30;;;20.10;32.20;;;;;;5090714;28;20074;-68
2021/03/25 11:52:56;;;;;;;15.27;9.57;;;19.40;33.30;;;;;;5090747;28;20039;-68
2021/03/25 11:55:35;;;;;;;14.93;8.85;;;18.80;34.40;;;;;;5091204;28;20086;-67
2021/03/25 11:58:27;;;;;;;15.35;9.18;;;18.50;35.20;;;;;;5089886;28;20527;-69
2021/03/25 12:01:18;;;;;;;15.18;9.52;;;18.50;36.80;;;;;;5086132;28;20081;-68
2021/03/25 12:03:57;;;;;;;16.00;9.85;;;18.90;37.00;;;;;;5090833;28;20024;-68
2021/03/25 12:06:32;;;;;;;15.77;9.40;;;19.50;37.00;;;;;;5089693;28;20044;-68
2021/03/25 12:09:26;;;;;;;14.13;9.05;;;20.80;37.10;;;;;;5091415;28;20144;-68
2021/03/25 12:11:52;;;;;;;14.27;9.55;;;21.70;35.50;;;;;;5090221;28;20028;-68
2021/03/25 12:14:22;;;;;;;15.63;9.43;;;21.80;34.30;;;;;;5090772;28;20119;-67
2021/03/25 12:16:52;;;;;;;18.17;11.20;;;21.80;34.10;;;;;;5090541;28;20063;-68
2021/03/25 12:19:18;;;;;;;15.43;10.07;;;21.50;33.00;;;;;;5090962;28;20039;-69
2021/03/25 12:21:44;;;;;;;15.90;10.07;;;20.70;33.70;;;;;;5090077;28;20040;-68
2021/03/25 12:24:11;;;;;;;14.82;10.13;;;21.00;35.50;;;;;;5090644;28;20047;-67
2021/03/25 12:26:37;;;;;;;16.10;10.10;;;21.10;34.60;;;;;;5071695;28;20032;-68
2021/03/25 12:29:03;;;;;;;15.50;10.32;;;20.90;34.30;;;;;;5070172;28;20078;-69
2021/03/25 12:31:35;;;;;;;15.70;11.05;;;20.50;34.30;;;;;;5069727;28;20065;-68
2021/03/25 12:34:02;;;;;;;17.33;11.55;;;20.30;34.70;;;;;;5069803;28;20036;-68
2021/03/25 12:36:29;;;;;;;16.98;10.32;;;20.10;35.30;;;;;;5070131;28;20086;-68
2021/03/25 12:38:56;;;;;;;16.65;10.00;;;19.90;36.20;;;;;;5070376;28;20044;-68
2021/03/25 12:41:27;;;;;;;16.73;10.18;;;19.80;35.80;;;;;;5067791;28;20032;-68
2021/03/25 12:43:53;;;;;;;17.45;11.23;;;19.50;35.70;;;;;;5070017;28;20099;-68
2021/03/25 12:46:19;;;;;;;17.17;10.90;;;19.00;36.10;;;;;;5069874;28;20043;-67
2021/03/25 12:48:45;;;;;;;16.15;10.50;;;18.60;36.70;;;;;;5070432;28;20145;-68
2021/03/25 12:51:15;;;;;;;16.90;11.35;;;18.20;37.60;;;;;;5050632;28;20438;-68
2021/03/25 12:53:43;;;;;;;16.10;10.57;;;18.60;39.20;;;;;;5069998;28;20055;-68
2021/03/25 12:56:34;;;;;;;18.10;10.88;;;19.70;40.00;;;;;;5070383;28;20101;-68
2021/03/25 12:59:08;;;;;;;14.57;9.63;;;21.40;39.40;;;;;;5070154;28;20345;-69
2021/03/25 13:01:34;;;;;;;17.23;10.15;;;22.60;37.40;;;;;;5070078;28;20029;-68
2021/03/25 13:04:01;;;;;;;17.88;10.50;;;23.30;35.90;;;;;;5069455;28;20033;-67
2021/03/25 13:06:27;;;;;;;16.02;10.77;;;23.40;34.40;;;;;;5069911;28;20037;-68
2021/03/25 13:08:53;;;;;;;15.57;10.68;;;23.00;33.60;;;;;;5069871;28;20032;-69
2021/03/25 13:11:25;;;;;;;15.93;10.65;;;22.30;33.30;;;;;;5069681;28;20039;-69
2021/03/25 13:13:52;;;;;;;17.23;10.82;;;21.40;33.60;;;;;;5069895;28;20033;-67
2021/03/25 13:16:18;;;;;;;16.45;10.32;;;20.60;34.20;;;;;;5068473;28;20033;-67
2021/03/25 13:18:44;;;;;;;18.40;10.07;;;20.00;35.20;;;;;;5070137;28;20032;-68
2021/03/25 13:21:11;;;;;;;15.00;9.50;;;19.50;35.90;;;;;;5100724;28;20096;-69